sensor_id;sensor_type;location;lat;lon;timestamp;P1;durP1;ratioP1;P2;durP2;ratioP2
55993;SDS011;67425;52.126;20.638;2023-05-07T00:02:00;13.52;;;3.25;;
55993;SDS011;67425;52.126;20.638;2023-05-07T00:04:26;5.70;;;3.55;;
55993;SDS011;67425;52.126;20.638;2023-05-07T00:06:53;4.35;;;3.30;;
55993;SDS011;67425;52.126;20.638;2023-05-07T00:09:18;12.93;;;3.35;;
55993;SDS011;67425;52.126;20.638;2023-05-07T00:11:43;3.65;;;3.28;;
55993;SDS011;67425;52.126;20.638;2023-05-07T00:14:09;13.75;;;3.40;;
55993;SDS011;67425;52.126;20.638;2023-05-07T00:16:34;7.18;;;3.35;;
55993;SDS011;67425;52.126;20.638;2023-05-07T00:18:59;5.53;;;3.35;;
55993;SDS011;67425;52.126;20.638;2023-05-07T00:21:25;6.15;;;4.05;;
55993;SDS011;67425;52.126;20.638;2023-05-07T00:23:52;7.05;;;3.92;;
55993;SDS011;67425;52.126;20.638;2023-05-07T00:26:18;6.53;;;4.05;;
55993;SDS011;67425;52.126;20.638;2023-05-07T00:28:43;4.13;;;3.47;;
55993;SDS011;67425;52.126;20.638;2023-05-07T00:31:08;13.05;;;4.05;;
55993;SDS011;67425;52.126;20.638;2023-05-07T00:33:34;5.38;;;4.03;;
55993;SDS011;67425;52.126;20.638;2023-05-07T00:35:59;3.83;;;3.15;;
55993;SDS011;67425;52.126;20.638;2023-05-07T00:38:26;9.48;;;3.60;;
55993;SDS011;67425;52.126;20.638;2023-05-07T00:40:52;5.35;;;3.38;;
55993;SDS011;67425;52.126;20.638;2023-05-07T00:43:17;8.40;;;3.05;;
55993;SDS011;67425;52.126;20.638;2023-05-07T00:45:43;3.92;;;2.53;;
55993;SDS011;67425;52.126;20.638;2023-05-07T00:48:08;3.50;;;2.85;;
55993;SDS011;67425;52.126;20.638;2023-05-07T00:50:33;8.98;;;4.07;;
55993;SDS011;67425;52.126;20.638;2023-05-07T00:52:59;3.53;;;2.72;;
55993;SDS011;67425;52.126;20.638;2023-05-07T00:55:25;8.45;;;3.00;;
55993;SDS011;67425;52.126;20.638;2023-05-07T00:57:50;9.20;;;3.15;;
55993;SDS011;67425;52.126;20.638;2023-05-07T01:00:16;7.72;;;3.58;;
55993;SDS011;67425;52.126;20.638;2023-05-07T01:02:43;5.55;;;3.78;;
55993;SDS011;67425;52.126;20.638;2023-05-07T01:05:09;6.90;;;4.20;;
55993;SDS011;67425;52.126;20.638;2023-05-07T01:07:37;6.07;;;4.10;;
55993;SDS011;67425;52.126;20.638;2023-05-07T01:10:04;7.47;;;4.10;;
55993;SDS011;67425;52.126;20.638;2023-05-07T01:12:31;7.70;;;3.42;;
55993;SDS011;67425;52.126;20.638;2023-05-07T01:14:57;7.45;;;3.70;;
55993;SDS011;67425;52.126;20.638;2023-05-07T01:17:23;4.55;;;3.72;;
55993;SDS011;67425;52.126;20.638;2023-05-07T01:19:49;3.97;;;3.50;;
55993;SDS011;67425;52.126;20.638;2023-05-07T01:22:15;6.18;;;4.63;;
55993;SDS011;67425;52.126;20.638;2023-05-07T01:24:44;5.30;;;3.47;;
55993;SDS011;67425;52.126;20.638;2023-05-07T01:27:10;8.55;;;3.85;;
55993;SDS011;67425;52.126;20.638;2023-05-07T01:29:35;9.23;;;4.20;;
55993;SDS011;67425;52.126;20.638;2023-05-07T01:32:00;3.90;;;2.72;;
55993;SDS011;67425;52.126;20.638;2023-05-07T01:34:27;8.02;;;3.35;;
55993;SDS011;67425;52.126;20.638;2023-05-07T01:36:55;8.20;;;4.57;;
55993;SDS011;67425;52.126;20.638;2023-05-07T01:39:24;4.10;;;3.25;;
55993;SDS011;67425;52.126;20.638;2023-05-07T01:41:50;4.25;;;3.00;;
55993;SDS011;67425;52.126;20.638;2023-05-07T01:44:16;5.93;;;3.03;;
55993;SDS011;67425;52.126;20.638;2023-05-07T01:46:43;5.30;;;3.35;;
55993;SDS011;67425;52.126;20.638;2023-05-07T01:49:09;7.35;;;3.38;;
55993;SDS011;67425;52.126;20.638;2023-05-07T01:51:35;3.58;;;3.30;;
55993;SDS011;67425;52.126;20.638;2023-05-07T01:54:00;4.32;;;3.45;;
55993;SDS011;67425;52.126;20.638;2023-05-07T01:56:26;5.03;;;3.92;;
55993;SDS011;67425;52.126;20.638;2023-05-07T01:58:51;6.32;;;4.22;;
55993;SDS011;67425;52.126;20.638;2023-05-07T02:01:16;4.38;;;3.33;;
55993;SDS011;67425;52.126;20.638;2023-05-07T02:03:42;3.85;;;3.17;;
55993;SDS011;67425;52.126;20.638;2023-05-07T02:06:08;3.70;;;3.33;;
55993;SDS011;67425;52.126;20.638;2023-05-07T02:08:33;3.20;;;2.88;;
55993;SDS011;67425;52.126;20.638;2023-05-07T02:10:59;9.32;;;2.83;;
55993;SDS011;67425;52.126;20.638;2023-05-07T02:13:25;3.75;;;2.65;;
55993;SDS011;67425;52.126;20.638;2023-05-07T02:15:52;9.32;;;2.67;;
55993;SDS011;67425;52.126;20.638;2023-05-07T02:18:18;4.10;;;3.17;;
55993;SDS011;67425;52.126;20.638;2023-05-07T02:20:43;3.50;;;3.20;;
55993;SDS011;67425;52.126;20.638;2023-05-07T02:23:09;5.63;;;3.10;;
55993;SDS011;67425;52.126;20.638;2023-05-07T02:25:34;4.60;;;3.17;;
55993;SDS011;67425;52.126;20.638;2023-05-07T02:27:59;6.47;;;3.15;;
55993;SDS011;67425;52.126;20.638;2023-05-07T02:30:25;3.50;;;2.28;;
55993;SDS011;67425;52.126;20.638;2023-05-07T02:32:51;7.47;;;3.80;;
55993;SDS011;67425;52.126;20.638;2023-05-07T02:35:16;3.13;;;2.90;;
55993;SDS011;67425;52.126;20.638;2023-05-07T02:37:42;5.60;;;3.75;;
55993;SDS011;67425;52.126;20.638;2023-05-07T02:40:07;4.68;;;2.55;;
55993;SDS011;67425;52.126;20.638;2023-05-07T02:42:33;4.55;;;2.90;;
55993;SDS011;67425;52.126;20.638;2023-05-07T02:44:58;15.38;;;3.42;;
55993;SDS011;67425;52.126;20.638;2023-05-07T02:47:24;4.57;;;3.75;;
55993;SDS011;67425;52.126;20.638;2023-05-07T02:49:51;2.90;;;2.65;;
55993;SDS011;67425;52.126;20.638;2023-05-07T02:52:17;4.47;;;3.17;;
55993;SDS011;67425;52.126;20.638;2023-05-07T02:54:42;5.00;;;3.42;;
55993;SDS011;67425;52.126;20.638;2023-05-07T02:57:07;3.10;;;2.85;;
55993;SDS011;67425;52.126;20.638;2023-05-07T02:59:32;3.65;;;3.33;;
55993;SDS011;67425;52.126;20.638;2023-05-07T03:01:58;3.35;;;1.83;;
55993;SDS011;67425;52.126;20.638;2023-05-07T03:04:23;4.85;;;2.85;;
55993;SDS011;67425;52.126;20.638;2023-05-07T03:06:48;6.82;;;3.17;;
55993;SDS011;67425;52.126;20.638;2023-05-07T03:09:14;5.45;;;3.65;;
55993;SDS011;67425;52.126;20.638;2023-05-07T03:11:39;6.97;;;3.28;;
55993;SDS011;67425;52.126;20.638;2023-05-07T03:14:05;5.53;;;3.40;;
55993;SDS011;67425;52.126;20.638;2023-05-07T03:16:30;7.78;;;3.40;;
55993;SDS011;67425;52.126;20.638;2023-05-07T03:18:56;3.55;;;1.95;;
55993;SDS011;67425;52.126;20.638;2023-05-07T03:21:21;4.97;;;3.17;;
55993;SDS011;67425;52.126;20.638;2023-05-07T03:23:46;3.70;;;2.97;;
55993;SDS011;67425;52.126;20.638;2023-05-07T03:26:12;3.55;;;3.05;;
55993;SDS011;67425;52.126;20.638;2023-05-07T03:28:37;4.05;;;2.55;;
55993;SDS011;67425;52.126;20.638;2023-05-07T03:31:02;4.28;;;3.67;;
55993;SDS011;67425;52.126;20.638;2023-05-07T03:33:28;4.57;;;3.00;;
55993;SDS011;67425;52.126;20.638;2023-05-07T03:35:53;5.80;;;4.18;;
55993;SDS011;67425;52.126;20.638;2023-05-07T03:38:18;4.18;;;2.90;;
55993;SDS011;67425;52.126;20.638;2023-05-07T03:40:44;3.42;;;3.13;;
55993;SDS011;67425;52.126;20.638;2023-05-07T03:43:09;6.22;;;2.80;;
55993;SDS011;67425;52.126;20.638;2023-05-07T03:45:35;3.72;;;2.67;;
55993;SDS011;67425;52.126;20.638;2023-05-07T03:48:00;3.50;;;3.13;;
55993;SDS011;67425;52.126;20.638;2023-05-07T03:50:25;3.03;;;2.70;;
55993;SDS011;67425;52.126;20.638;2023-05-07T03:52:51;1.75;;;1.65;;
55993;SDS011;67425;52.126;20.638;2023-05-07T03:55:16;4.72;;;2.65;;
55993;SDS011;67425;52.126;20.638;2023-05-07T03:57:42;2.92;;;2.60;;
55993;SDS011;67425;52.126;20.638;2023-05-07T04:00:07;2.75;;;2.08;;
55993;SDS011;67425;52.126;20.638;2023-05-07T04:02:33;3.38;;;2.25;;
55993;SDS011;67425;52.126;20.638;2023-05-07T04:04:58;3.25;;;2.53;;
55993;SDS011;67425;52.126;20.638;2023-05-07T04:07:23;3.47;;;2.75;;
55993;SDS011;67425;52.126;20.638;2023-05-07T04:09:49;3.08;;;2.45;;
55993;SDS011;67425;52.126;20.638;2023-05-07T04:12:14;3.15;;;2.53;;
55993;SDS011;67425;52.126;20.638;2023-05-07T04:14:40;2.22;;;2.03;;
55993;SDS011;67425;52.126;20.638;2023-05-07T04:17:05;5.20;;;2.83;;
55993;SDS011;67425;52.126;20.638;2023-05-07T04:19:32;5.13;;;2.85;;
55993;SDS011;67425;52.126;20.638;2023-05-07T04:21:58;2.80;;;2.53;;
55993;SDS011;67425;52.126;20.638;2023-05-07T04:24:23;3.75;;;2.85;;
55993;SDS011;67425;52.126;20.638;2023-05-07T04:26:49;3.00;;;2.67;;
55993;SDS011;67425;52.126;20.638;2023-05-07T04:29:16;4.60;;;3.20;;
55993;SDS011;67425;52.126;20.638;2023-05-07T04:31:41;2.08;;;1.98;;
55993;SDS011;67425;52.126;20.638;2023-05-07T04:34:09;4.93;;;2.70;;
55993;SDS011;67425;52.126;20.638;2023-05-07T04:36:35;3.08;;;2.45;;
55993;SDS011;67425;52.126;20.638;2023-05-07T04:39:03;4.30;;;3.33;;
55993;SDS011;67425;52.126;20.638;2023-05-07T04:41:28;3.17;;;2.88;;
55993;SDS011;67425;52.126;20.638;2023-05-07T04:43:53;2.70;;;2.50;;
55993;SDS011;67425;52.126;20.638;2023-05-07T04:46:19;2.10;;;1.90;;
55993;SDS011;67425;52.126;20.638;2023-05-07T04:48:44;5.13;;;2.58;;
55993;SDS011;67425;52.126;20.638;2023-05-07T04:51:10;3.28;;;3.00;;
55993;SDS011;67425;52.126;20.638;2023-05-07T04:53:35;2.53;;;2.33;;
55993;SDS011;67425;52.126;20.638;2023-05-07T04:56:02;1.85;;;1.75;;
55993;SDS011;67425;52.126;20.638;2023-05-07T04:58:27;4.20;;;2.78;;
55993;SDS011;67425;52.126;20.638;2023-05-07T05:00:56;4.20;;;2.70;;
55993;SDS011;67425;52.126;20.638;2023-05-07T05:03:21;2.70;;;2.50;;
55993;SDS011;67425;52.126;20.638;2023-05-07T05:05:48;3.88;;;2.53;;
55993;SDS011;67425;52.126;20.638;2023-05-07T05:08:14;3.20;;;2.58;;
55993;SDS011;67425;52.126;20.638;2023-05-07T05:10:39;2.80;;;2.35;;
55993;SDS011;67425;52.126;20.638;2023-05-07T05:13:06;3.33;;;2.45;;
55993;SDS011;67425;52.126;20.638;2023-05-07T05:15:32;7.40;;;2.85;;
55993;SDS011;67425;52.126;20.638;2023-05-07T05:17:57;2.83;;;2.28;;
55993;SDS011;67425;52.126;20.638;2023-05-07T05:20:22;2.38;;;2.17;;
55993;SDS011;67425;52.126;20.638;2023-05-07T05:22:48;4.13;;;2.92;;
55993;SDS011;67425;52.126;20.638;2023-05-07T05:25:13;4.18;;;2.53;;
55993;SDS011;67425;52.126;20.638;2023-05-07T05:27:38;10.57;;;2.67;;
55993;SDS011;67425;52.126;20.638;2023-05-07T05:30:04;1.83;;;1.63;;
55993;SDS011;67425;52.126;20.638;2023-05-07T05:32:30;4.30;;;3.08;;
55993;SDS011;67425;52.126;20.638;2023-05-07T05:34:56;4.50;;;2.58;;
55993;SDS011;67425;52.126;20.638;2023-05-07T05:37:21;5.63;;;3.00;;
55993;SDS011;67425;52.126;20.638;2023-05-07T05:39:46;4.05;;;2.72;;
55993;SDS011;67425;52.126;20.638;2023-05-07T05:42:12;8.65;;;3.10;;
55993;SDS011;67425;52.126;20.638;2023-05-07T05:44:37;11.15;;;3.63;;
55993;SDS011;67425;52.126;20.638;2023-05-07T05:47:02;6.20;;;2.63;;
55993;SDS011;67425;52.126;20.638;2023-05-07T05:49:28;4.90;;;3.58;;
55993;SDS011;67425;52.126;20.638;2023-05-07T05:51:53;6.75;;;3.50;;
55993;SDS011;67425;52.126;20.638;2023-05-07T05:54:18;4.68;;;3.42;;
55993;SDS011;67425;52.126;20.638;2023-05-07T05:56:44;3.83;;;2.97;;
55993;SDS011;67425;52.126;20.638;2023-05-07T05:59:09;3.80;;;2.42;;
55993;SDS011;67425;52.126;20.638;2023-05-07T06:01:35;2.28;;;2.08;;
55993;SDS011;67425;52.126;20.638;2023-05-07T06:04:00;2.15;;;1.95;;
55993;SDS011;67425;52.126;20.638;2023-05-07T06:06:26;2.70;;;2.50;;
55993;SDS011;67425;52.126;20.638;2023-05-07T06:08:52;5.65;;;2.10;;
55993;SDS011;67425;52.126;20.638;2023-05-07T06:11:17;3.08;;;2.17;;
55993;SDS011;67425;52.126;20.638;2023-05-07T06:13:43;4.65;;;2.55;;
55993;SDS011;67425;52.126;20.638;2023-05-07T06:16:08;4.88;;;2.10;;
55993;SDS011;67425;52.126;20.638;2023-05-07T06:18:33;2.53;;;2.05;;
55993;SDS011;67425;52.126;20.638;2023-05-07T06:21:01;10.63;;;2.92;;
55993;SDS011;67425;52.126;20.638;2023-05-07T06:23:26;2.42;;;2.00;;
55993;SDS011;67425;52.126;20.638;2023-05-07T06:25:51;4.85;;;2.38;;
55993;SDS011;67425;52.126;20.638;2023-05-07T06:28:17;2.25;;;2.03;;
55993;SDS011;67425;52.126;20.638;2023-05-07T06:30:42;2.22;;;1.90;;
55993;SDS011;67425;52.126;20.638;2023-05-07T06:33:08;3.53;;;2.78;;
55993;SDS011;67425;52.126;20.638;2023-05-07T06:35:33;4.60;;;2.35;;
55993;SDS011;67425;52.126;20.638;2023-05-07T06:37:59;5.57;;;2.47;;
55993;SDS011;67425;52.126;20.638;2023-05-07T06:40:25;4.35;;;2.40;;
55993;SDS011;67425;52.126;20.638;2023-05-07T06:42:50;3.08;;;2.20;;
55993;SDS011;67425;52.126;20.638;2023-05-07T06:45:16;3.97;;;2.50;;
55993;SDS011;67425;52.126;20.638;2023-05-07T06:47:41;4.15;;;2.00;;
55993;SDS011;67425;52.126;20.638;2023-05-07T06:50:07;2.10;;;2.00;;
55993;SDS011;67425;52.126;20.638;2023-05-07T06:52:33;4.93;;;1.95;;
55993;SDS011;67425;52.126;20.638;2023-05-07T06:54:59;9.45;;;1.92;;
55993;SDS011;67425;52.126;20.638;2023-05-07T06:57:24;5.35;;;2.13;;
55993;SDS011;67425;52.126;20.638;2023-05-07T06:59:50;5.90;;;2.50;;
55993;SDS011;67425;52.126;20.638;2023-05-07T07:02:15;2.03;;;1.80;;
55993;SDS011;67425;52.126;20.638;2023-05-07T07:04:40;3.63;;;1.83;;
55993;SDS011;67425;52.126;20.638;2023-05-07T07:07:06;1.80;;;1.70;;
55993;SDS011;67425;52.126;20.638;2023-05-07T07:09:32;2.50;;;1.55;;
55993;SDS011;67425;52.126;20.638;2023-05-07T07:11:57;1.83;;;1.45;;
55993;SDS011;67425;52.126;20.638;2023-05-07T07:14:22;1.98;;;1.55;;
55993;SDS011;67425;52.126;20.638;2023-05-07T07:16:48;2.65;;;2.45;;
55993;SDS011;67425;52.126;20.638;2023-05-07T07:19:13;1.70;;;1.60;;
55993;SDS011;67425;52.126;20.638;2023-05-07T07:21:40;1.85;;;1.75;;
55993;SDS011;67425;52.126;20.638;2023-05-07T07:24:06;1.17;;;1.17;;
55993;SDS011;67425;52.126;20.638;2023-05-07T07:26:31;4.93;;;1.67;;
55993;SDS011;67425;52.126;20.638;2023-05-07T07:28:56;2.03;;;1.52;;
55993;SDS011;67425;52.126;20.638;2023-05-07T07:31:22;1.75;;;1.65;;
55993;SDS011;67425;52.126;20.638;2023-05-07T07:33:47;3.50;;;1.83;;
55993;SDS011;67425;52.126;20.638;2023-05-07T07:36:14;5.35;;;1.90;;
55993;SDS011;67425;52.126;20.638;2023-05-07T07:38:40;4.20;;;1.88;;
55993;SDS011;67425;52.126;20.638;2023-05-07T07:41:05;3.30;;;2.45;;
55993;SDS011;67425;52.126;20.638;2023-05-07T07:43:33;5.72;;;2.60;;
55993;SDS011;67425;52.126;20.638;2023-05-07T07:45:58;3.92;;;2.42;;
55993;SDS011;67425;52.126;20.638;2023-05-07T07:48:23;2.10;;;2.00;;
55993;SDS011;67425;52.126;20.638;2023-05-07T07:50:49;3.20;;;2.22;;
55993;SDS011;67425;52.126;20.638;2023-05-07T07:53:16;2.30;;;2.10;;
55993;SDS011;67425;52.126;20.638;2023-05-07T07:55:41;2.58;;;2.33;;
55993;SDS011;67425;52.126;20.638;2023-05-07T07:58:07;3.10;;;2.47;;
55993;SDS011;67425;52.126;20.638;2023-05-07T08:00:32;3.03;;;2.22;;
55993;SDS011;67425;52.126;20.638;2023-05-07T08:02:57;4.07;;;2.63;;
55993;SDS011;67425;52.126;20.638;2023-05-07T08:05:23;5.35;;;2.10;;
55993;SDS011;67425;52.126;20.638;2023-05-07T08:07:48;2.40;;;2.20;;
55993;SDS011;67425;52.126;20.638;2023-05-07T08:10:18;2.47;;;1.98;;
55993;SDS011;67425;52.126;20.638;2023-05-07T08:12:49;1.13;;;1.13;;
55993;SDS011;67425;52.126;20.638;2023-05-07T08:15:15;2.78;;;1.90;;
55993;SDS011;67425;52.126;20.638;2023-05-07T08:17:41;6.43;;;2.60;;
55993;SDS011;67425;52.126;20.638;2023-05-07T08:20:07;2.38;;;2.17;;
55993;SDS011;67425;52.126;20.638;2023-05-07T08:22:34;3.13;;;2.00;;
55993;SDS011;67425;52.126;20.638;2023-05-07T08:25:02;5.78;;;1.75;;
55993;SDS011;67425;52.126;20.638;2023-05-07T08:27:28;2.10;;;1.98;;
55993;SDS011;67425;52.126;20.638;2023-05-07T08:29:53;4.88;;;1.27;;
55993;SDS011;67425;52.126;20.638;2023-05-07T08:32:19;3.10;;;1.67;;
55993;SDS011;67425;52.126;20.638;2023-05-07T08:34:45;2.95;;;2.03;;
55993;SDS011;67425;52.126;20.638;2023-05-07T08:37:11;1.90;;;1.70;;
55993;SDS011;67425;52.126;20.638;2023-05-07T08:39:36;4.80;;;1.83;;
55993;SDS011;67425;52.126;20.638;2023-05-07T08:42:01;2.40;;;2.17;;
55993;SDS011;67425;52.126;20.638;2023-05-07T08:44:30;2.83;;;1.60;;
55993;SDS011;67425;52.126;20.638;2023-05-07T08:46:58;2.75;;;2.00;;
55993;SDS011;67425;52.126;20.638;2023-05-07T08:49:26;1.98;;;1.63;;
55993;SDS011;67425;52.126;20.638;2023-05-07T08:51:52;1.92;;;1.83;;
55993;SDS011;67425;52.126;20.638;2023-05-07T08:54:18;1.95;;;1.85;;
55993;SDS011;67425;52.126;20.638;2023-05-07T08:56:44;1.90;;;1.80;;
55993;SDS011;67425;52.126;20.638;2023-05-07T08:59:10;2.63;;;1.60;;
55993;SDS011;67425;52.126;20.638;2023-05-07T09:01:35;3.67;;;1.98;;
55993;SDS011;67425;52.126;20.638;2023-05-07T09:04:01;2.33;;;1.63;;
55993;SDS011;67425;52.126;20.638;2023-05-07T09:06:26;5.43;;;1.98;;
55993;SDS011;67425;52.126;20.638;2023-05-07T09:08:54;2.10;;;1.90;;
55993;SDS011;67425;52.126;20.638;2023-05-07T09:11:21;2.97;;;2.13;;
55993;SDS011;67425;52.126;20.638;2023-05-07T09:13:47;3.78;;;1.27;;
55993;SDS011;67425;52.126;20.638;2023-05-07T09:16:13;2.13;;;2.03;;
55993;SDS011;67425;52.126;20.638;2023-05-07T09:18:40;2.75;;;2.20;;
55993;SDS011;67425;52.126;20.638;2023-05-07T09:21:10;1.55;;;1.45;;
55993;SDS011;67425;52.126;20.638;2023-05-07T09:23:36;5.85;;;2.00;;
55993;SDS011;67425;52.126;20.638;2023-05-07T09:26:01;1.75;;;1.65;;
55993;SDS011;67425;52.126;20.638;2023-05-07T09:28:27;1.75;;;1.65;;
55993;SDS011;67425;52.126;20.638;2023-05-07T09:30:52;2.03;;;1.92;;
55993;SDS011;67425;52.126;20.638;2023-05-07T09:33:18;2.17;;;1.77;;
55993;SDS011;67425;52.126;20.638;2023-05-07T09:35:43;5.88;;;2.00;;
55993;SDS011;67425;52.126;20.638;2023-05-07T09:38:08;2.42;;;2.20;;
55993;SDS011;67425;52.126;20.638;2023-05-07T09:40:33;2.35;;;2.00;;
55993;SDS011;67425;52.126;20.638;2023-05-07T09:43:11;2.67;;;2.03;;
55993;SDS011;67425;52.126;20.638;2023-05-07T09:45:38;6.05;;;1.38;;
55993;SDS011;67425;52.126;20.638;2023-05-07T09:48:04;1.90;;;1.75;;
55993;SDS011;67425;52.126;20.638;2023-05-07T09:50:40;1.92;;;1.67;;
55993;SDS011;67425;52.126;20.638;2023-05-07T09:53:16;2.53;;;1.80;;
55993;SDS011;67425;52.126;20.638;2023-05-07T09:55:42;4.72;;;1.45;;
55993;SDS011;67425;52.126;20.638;2023-05-07T09:58:08;9.38;;;2.22;;
55993;SDS011;67425;52.126;20.638;2023-05-07T10:00:34;1.33;;;1.23;;
55993;SDS011;67425;52.126;20.638;2023-05-07T10:03:01;4.28;;;0.93;;
55993;SDS011;67425;52.126;20.638;2023-05-07T10:05:27;1.65;;;1.55;;
55993;SDS011;67425;52.126;20.638;2023-05-07T10:07:52;1.67;;;1.40;;
55993;SDS011;67425;52.126;20.638;2023-05-07T10:10:19;3.85;;;1.65;;
55993;SDS011;67425;52.126;20.638;2023-05-07T10:12:44;2.88;;;1.50;;
55993;SDS011;67425;52.126;20.638;2023-05-07T10:15:11;1.38;;;1.27;;
55993;SDS011;67425;52.126;20.638;2023-05-07T10:17:37;2.47;;;1.55;;
55993;SDS011;67425;52.126;20.638;2023-05-07T10:20:04;2.08;;;1.30;;
55993;SDS011;67425;52.126;20.638;2023-05-07T10:22:45;1.70;;;1.60;;
55993;SDS011;67425;52.126;20.638;2023-05-07T10:25:21;1.42;;;1.33;;
55993;SDS011;67425;52.126;20.638;2023-05-07T10:27:50;2.15;;;1.08;;
55993;SDS011;67425;52.126;20.638;2023-05-07T10:30:34;2.97;;;1.40;;
55993;SDS011;67425;52.126;20.638;2023-05-07T10:33:11;6.05;;;1.20;;
55993;SDS011;67425;52.126;20.638;2023-05-07T10:35:41;3.13;;;1.70;;
55993;SDS011;67425;52.126;20.638;2023-05-07T10:38:08;2.97;;;1.63;;
55993;SDS011;67425;52.126;20.638;2023-05-07T10:40:34;1.83;;;1.65;;
55993;SDS011;67425;52.126;20.638;2023-05-07T10:43:01;1.60;;;1.50;;
55993;SDS011;67425;52.126;20.638;2023-05-07T10:45:29;4.78;;;1.73;;
55993;SDS011;67425;52.126;20.638;2023-05-07T10:48:14;2.28;;;1.42;;
55993;SDS011;67425;52.126;20.638;2023-05-07T10:50:41;1.25;;;1.15;;
55993;SDS011;67425;52.126;20.638;2023-05-07T10:55:42;2.97;;;1.70;;
55993;SDS011;67425;52.126;20.638;2023-05-07T10:58:26;2.20;;;1.58;;
55993;SDS011;67425;52.126;20.638;2023-05-07T11:00:56;2.28;;;1.80;;
55993;SDS011;67425;52.126;20.638;2023-05-07T11:03:23;56.22;;;4.18;;
55993;SDS011;67425;52.126;20.638;2023-05-07T11:06:08;10.23;;;1.48;;
55993;SDS011;67425;52.126;20.638;2023-05-07T11:14:09;2.53;;;1.17;;
55993;SDS011;67425;52.126;20.638;2023-05-07T11:16:35;2.45;;;1.55;;
55993;SDS011;67425;52.126;20.638;2023-05-07T11:19:01;2.72;;;1.60;;
55993;SDS011;67425;52.126;20.638;2023-05-07T11:21:40;2.17;;;1.70;;
55993;SDS011;67425;52.126;20.638;2023-05-07T11:24:07;2.97;;;1.63;;
55993;SDS011;67425;52.126;20.638;2023-05-07T11:26:43;3.47;;;2.28;;
55993;SDS011;67425;52.126;20.638;2023-05-07T11:29:11;4.35;;;1.92;;
55993;SDS011;67425;52.126;20.638;2023-05-07T11:31:37;3.25;;;2.30;;
55993;SDS011;67425;52.126;20.638;2023-05-07T11:34:03;3.70;;;2.00;;
55993;SDS011;67425;52.126;20.638;2023-05-07T11:36:30;2.60;;;1.73;;
55993;SDS011;67425;52.126;20.638;2023-05-07T11:38:58;2.42;;;1.25;;
55993;SDS011;67425;52.126;20.638;2023-05-07T11:41:32;1.33;;;1.02;;
55993;SDS011;67425;52.126;20.638;2023-05-07T11:43:59;6.50;;;1.48;;
55993;SDS011;67425;52.126;20.638;2023-05-07T11:46:25;1.80;;;1.25;;
55993;SDS011;67425;52.126;20.638;2023-05-07T11:48:52;2.72;;;1.42;;
55993;SDS011;67425;52.126;20.638;2023-05-07T11:51:20;1.50;;;1.40;;
55993;SDS011;67425;52.126;20.638;2023-05-07T11:53:48;3.67;;;1.35;;
55993;SDS011;67425;52.126;20.638;2023-05-07T11:56:14;1.75;;;1.50;;
55993;SDS011;67425;52.126;20.638;2023-05-07T11:58:41;1.23;;;1.13;;
55993;SDS011;67425;52.126;20.638;2023-05-07T12:01:07;2.35;;;2.08;;
55993;SDS011;67425;52.126;20.638;2023-05-07T12:03:37;4.32;;;2.15;;
55993;SDS011;67425;52.126;20.638;2023-05-07T12:06:07;2.33;;;1.48;;
55993;SDS011;67425;52.126;20.638;2023-05-07T12:08:32;3.72;;;1.42;;
55993;SDS011;67425;52.126;20.638;2023-05-07T12:11:01;39.00;;;2.53;;
55993;SDS011;67425;52.126;20.638;2023-05-07T12:13:26;5.05;;;1.70;;
55993;SDS011;67425;52.126;20.638;2023-05-07T12:15:52;3.17;;;1.60;;
55993;SDS011;67425;52.126;20.638;2023-05-07T12:18:18;2.55;;;1.85;;
55993;SDS011;67425;52.126;20.638;2023-05-07T12:20:43;1.27;;;1.17;;
55993;SDS011;67425;52.126;20.638;2023-05-07T12:23:10;2.45;;;1.45;;
55993;SDS011;67425;52.126;20.638;2023-05-07T12:25:36;6.18;;;1.77;;
55993;SDS011;67425;52.126;20.638;2023-05-07T12:28:03;2.10;;;1.92;;
55993;SDS011;67425;52.126;20.638;2023-05-07T12:30:30;12.07;;;1.30;;
55993;SDS011;67425;52.126;20.638;2023-05-07T12:33:04;1.65;;;1.30;;
55993;SDS011;67425;52.126;20.638;2023-05-07T12:35:30;6.30;;;1.80;;
55993;SDS011;67425;52.126;20.638;2023-05-07T12:37:57;1.83;;;1.27;;
55993;SDS011;67425;52.126;20.638;2023-05-07T12:40:29;1.17;;;1.08;;
55993;SDS011;67425;52.126;20.638;2023-05-07T12:43:07;1.63;;;1.52;;
55993;SDS011;67425;52.126;20.638;2023-05-07T12:45:38;4.32;;;1.90;;
55993;SDS011;67425;52.126;20.638;2023-05-07T12:48:06;1.83;;;1.60;;
55993;SDS011;67425;52.126;20.638;2023-05-07T12:50:32;2.85;;;1.75;;
55993;SDS011;67425;52.126;20.638;2023-05-07T12:53:00;1.98;;;1.58;;
55993;SDS011;67425;52.126;20.638;2023-05-07T12:55:31;6.47;;;1.45;;
55993;SDS011;67425;52.126;20.638;2023-05-07T12:57:57;4.47;;;1.40;;
55993;SDS011;67425;52.126;20.638;2023-05-07T13:00:59;2.67;;;1.30;;
55993;SDS011;67425;52.126;20.638;2023-05-07T13:03:20;1.77;;;1.45;;
55993;SDS011;67425;52.126;20.638;2023-05-07T13:05:48;2.35;;;2.13;;
55993;SDS011;67425;52.126;20.638;2023-05-07T13:08:22;1.40;;;1.20;;
55993;SDS011;67425;52.126;20.638;2023-05-07T13:10:51;1.77;;;1.38;;
55993;SDS011;67425;52.126;20.638;2023-05-07T13:13:18;2.40;;;1.58;;
55993;SDS011;67425;52.126;20.638;2023-05-07T13:15:43;3.95;;;1.33;;
55993;SDS011;67425;52.126;20.638;2023-05-07T13:18:09;5.78;;;1.45;;
55993;SDS011;67425;52.126;20.638;2023-05-07T13:20:36;4.13;;;1.70;;
55993;SDS011;67425;52.126;20.638;2023-05-07T13:23:01;1.60;;;1.50;;
55993;SDS011;67425;52.126;20.638;2023-05-07T13:25:29;1.88;;;1.48;;
55993;SDS011;67425;52.126;20.638;2023-05-07T13:27:54;8.75;;;1.20;;
55993;SDS011;67425;52.126;20.638;2023-05-07T13:30:19;1.40;;;1.33;;
55993;SDS011;67425;52.126;20.638;2023-05-07T13:32:45;2.13;;;1.33;;
55993;SDS011;67425;52.126;20.638;2023-05-07T13:35:12;1.65;;;1.20;;
55993;SDS011;67425;52.126;20.638;2023-05-07T13:37:38;2.22;;;1.58;;
55993;SDS011;67425;52.126;20.638;2023-05-07T13:40:03;1.50;;;1.40;;
55993;SDS011;67425;52.126;20.638;2023-05-07T13:42:29;2.13;;;1.25;;
55993;SDS011;67425;52.126;20.638;2023-05-07T13:44:56;1.85;;;1.25;;
55993;SDS011;67425;52.126;20.638;2023-05-07T13:47:22;1.80;;;1.70;;
55993;SDS011;67425;52.126;20.638;2023-05-07T13:49:47;3.72;;;1.45;;
55993;SDS011;67425;52.126;20.638;2023-05-07T13:52:15;1.85;;;1.20;;
55993;SDS011;67425;52.126;20.638;2023-05-07T13:54:40;2.90;;;1.33;;
55993;SDS011;67425;52.126;20.638;2023-05-07T13:57:06;1.05;;;1.00;;
55993;SDS011;67425;52.126;20.638;2023-05-07T13:59:31;2.25;;;1.13;;
55993;SDS011;67425;52.126;20.638;2023-05-07T14:01:56;1.60;;;1.30;;
55993;SDS011;67425;52.126;20.638;2023-05-07T14:04:22;1.58;;;1.48;;
55993;SDS011;67425;52.126;20.638;2023-05-07T14:06:47;1.92;;;1.67;;
55993;SDS011;67425;52.126;20.638;2023-05-07T14:09:12;5.40;;;2.00;;
55993;SDS011;67425;52.126;20.638;2023-05-07T14:11:38;4.30;;;2.35;;
55993;SDS011;67425;52.126;20.638;2023-05-07T14:14:04;2.33;;;1.80;;
55993;SDS011;67425;52.126;20.638;2023-05-07T14:16:30;8.52;;;1.48;;
55993;SDS011;67425;52.126;20.638;2023-05-07T14:18:55;1.17;;;1.08;;
55993;SDS011;67425;52.126;20.638;2023-05-07T14:21:21;5.43;;;2.47;;
55993;SDS011;67425;52.126;20.638;2023-05-07T14:23:46;2.90;;;1.77;;
55993;SDS011;67425;52.126;20.638;2023-05-07T14:26:12;4.93;;;1.08;;
55993;SDS011;67425;52.126;20.638;2023-05-07T14:28:37;1.20;;;1.10;;
55993;SDS011;67425;52.126;20.638;2023-05-07T14:31:04;3.35;;;1.15;;
55993;SDS011;67425;52.126;20.638;2023-05-07T14:33:31;1.50;;;1.23;;
55993;SDS011;67425;52.126;20.638;2023-05-07T14:35:56;1.63;;;1.30;;
55993;SDS011;67425;52.126;20.638;2023-05-07T14:38:21;1.88;;;1.00;;